Alba, TX

4:13 AM CDT on September 02, 2014 (GMT -0500)
Mineola | Change Station
CLOSE
Current Station
Airport
Location: Mineola,
Elevation: 433 ft
Nearby Weather Stations

Elev 433 ft 32.74 °N, 95.49 °W | Updated 18 minutes ago

Clear
Clear
81 °F
Feels Like 86 °F
N
7
Wind Variable Wind from South

Today
High -- | Low -- °F
--% Chance of Precip.
Yesterday
High -- | Low -- °F
Precip. -- in
6:57 AM 7:45 PM
Waxing Crescent, 49% visible
Pressure 29.91 in
Visibility 10.0 miles
Clouds Clear
Heat Index 86 °F
Dew Point 75 °F
Humidity 84%
Rainfall 0.00 in
Snow Depth Not available.
UV 0 out of 12
Pollen 11.20 out of 12
Air Quality Not available.
Flu Activity Not available.
METAR KJDD 020855Z AUTO 18006KT 10SM CLR 27/24 A2991 RMK AO2

More Conditions Fewer Conditions

Pressure 29.91 in
Visibility 10.0 miles
Clouds Clear
Heat Index 86 °F
Dew Point 75 °F
Humidity 84%
Rainfall 0.00 in
Snow Depth Not available.
UV 0 out of 12
Pollen 11.20 out of 12
Air Quality Not available.
Flu Activity Not available.
METAR KJDD 020855Z AUTO 18006KT 10SM CLR 27/24 A2991 RMK AO2

More Conditions Fewer Conditions

10-Day Weather Forecast

Almanac

Astronomy

Sep. 02, 2014 Rise Set
Actual Time 6:57 AM CDT 7:45 PM CDT
Civil Twilight 6:32 AM CDT 8:10 PM CDT
Nautical Twilight 6:03 AM CDT 8:40 PM CDT
Astronomical Twilight 5:32 AM CDT 9:10 PM CDT
Moon 2:20 PM CDT 12:11 AM CDT
Length of Visible Light 13h 38m
Length of Day
12h 48m
Tomorrow will be 1m 57s shorter.
Waxing Crescent, 49% of the Moon is Illuminated
Today
Waxing Crescent
Sep 2
First Quarter
Sep 8
Full
Sep 15
Last Quarter
Sep 24
New

Today's Extremes

State Highs State Lows

Community

WunderPhotos

Upload Photos

1,749,587 photos uploaded!

WunderBlogs® & News

Nearby

Snow Depth

Station Depth Elevation
No new snow has been reported.

Earthquake Activity

City Distance Mag. Time & Date
No recent earthquake activity has been reported nearby.
Minimum magnitude displayed is 2.5.

Coastal Water Temperatures

Place Temperature
No Stations Reporting

Nearby Weather Stations